createdAt,value
2018-06-15T00:00:10.092Z,16.52
2018-06-15T00:02:38.480Z,15.45
2018-06-15T00:05:06.929Z,11.73
2018-06-15T00:07:35.292Z,14.68
2018-06-15T00:10:03.676Z,15.40
2018-06-15T00:12:32.044Z,22.25
2018-06-15T00:15:00.400Z,16.70
2018-06-15T00:17:28.776Z,14.68
2018-06-15T00:19:57.108Z,17.70
2018-06-15T00:22:26.520Z,17.02
2018-06-15T00:24:54.877Z,15.30
2018-06-15T00:27:23.200Z,13.50
2018-06-15T00:29:51.543Z,17.32
2018-06-15T00:32:19.872Z,17.57
2018-06-15T00:34:48.212Z,15.20
2018-06-15T00:37:16.542Z,15.15
2018-06-15T00:39:44.888Z,17.65
2018-06-15T00:42:13.200Z,16.20
2018-06-15T00:44:41.545Z,21.95
2018-06-15T00:47:09.866Z,19.40
2018-06-15T00:49:38.209Z,15.68
2018-06-15T00:52:06.248Z,17.80
2018-06-15T00:54:34.596Z,16.27
2018-06-15T00:57:14.289Z,15.72
2018-06-15T00:59:42.636Z,17.12
2018-06-15T01:02:10.972Z,25.68
2018-06-15T01:04:39.337Z,16.32
2018-06-15T01:07:07.684Z,18.65
2018-06-15T01:09:36.053Z,16.42
2018-06-15T01:12:04.421Z,19.92
2018-06-15T01:14:32.812Z,17.73
2018-06-15T01:17:01.180Z,22.30
2018-06-15T01:19:29.509Z,16.77
2018-06-15T01:21:57.816Z,19.05
2018-06-15T01:24:26.147Z,20.72
2018-06-15T01:26:54.457Z,17.98
2018-06-15T01:29:22.796Z,20.92
2018-06-15T01:31:51.108Z,18.17
2018-06-15T01:34:19.173Z,14.63
2018-06-15T01:36:47.490Z,20.45
2018-06-15T01:39:15.816Z,17.00
2018-06-15T01:41:44.165Z,13.68
2018-06-15T01:44:12.484Z,19.95
2018-06-15T01:46:40.815Z,22.60
2018-06-15T01:49:09.133Z,24.37
2018-06-15T01:51:37.472Z,18.45
2018-06-15T01:54:05.781Z,21.55
2018-06-15T01:56:34.115Z,17.80
2018-06-15T01:59:02.448Z,20.45
2018-06-15T02:01:30.834Z,23.73
2018-06-15T02:03:59.096Z,18.77
2018-06-15T02:06:27.429Z,18.15
2018-06-15T02:08:55.745Z,19.20
2018-06-15T02:11:25.105Z,16.57
2018-06-15T02:13:53.556Z,18.95
2018-06-15T02:16:21.896Z,17.23
2018-06-15T02:18:50.204Z,19.35
2018-06-15T02:21:18.552Z,20.82
2018-06-15T02:23:46.872Z,29.87
2018-06-15T02:26:15.212Z,17.37
2018-06-15T02:28:43.524Z,21.62
2018-06-15T02:31:11.872Z,18.73
2018-06-15T02:33:40.201Z,22.98
2018-06-15T02:36:08.259Z,20.65
2018-06-15T02:38:36.580Z,16.82
2018-06-15T02:41:04.949Z,13.90
2018-06-15T02:43:32.989Z,20.23
2018-06-15T02:46:01.348Z,16.17
2018-06-15T02:48:29.673Z,21.62
2018-06-15T02:50:57.730Z,16.15
2018-06-15T02:53:25.760Z,19.40
2018-06-15T02:55:54.136Z,22.15
2018-06-15T02:58:22.465Z,19.30
2018-06-15T03:00:50.873Z,17.12
2018-06-15T03:03:19.193Z,21.60
2018-06-15T03:05:47.565Z,17.62
2018-06-15T03:08:15.897Z,19.55
2018-06-15T03:10:44.221Z,17.60
2018-06-15T03:13:12.559Z,23.05
2018-06-15T03:15:40.893Z,16.37
2018-06-15T03:18:09.229Z,14.73
2018-06-15T03:20:37.552Z,18.30
2018-06-15T03:23:05.885Z,19.87
2018-06-15T03:25:34.197Z,17.95
2018-06-15T03:28:02.545Z,16.37
2018-06-15T03:30:30.957Z,15.53
2018-06-15T03:32:59.284Z,16.20
2018-06-15T03:35:27.656Z,20.27
2018-06-15T03:37:55.696Z,19.73
2018-06-15T03:40:24.013Z,20.60
2018-06-15T03:42:52.337Z,15.80
2018-06-15T03:45:20.652Z,21.48
2018-06-15T03:47:49.020Z,17.65
2018-06-15T03:50:17.331Z,17.37
2018-06-15T03:52:45.664Z,18.02
2018-06-15T03:55:14.012Z,19.20
2018-06-15T03:57:42.345Z,23.07
2018-06-15T04:00:10.675Z,21.87
2018-06-15T04:02:39.004Z,19.02
2018-06-15T04:05:07.337Z,20.08
2018-06-15T04:07:35.739Z,17.95
2018-06-15T04:10:04.030Z,22.73
2018-06-15T04:12:37.342Z,21.27
2018-06-15T04:15:05.399Z,19.50
2018-06-15T04:17:33.745Z,14.58
2018-06-15T04:20:02.081Z,16.62
2018-06-15T04:22:31.211Z,18.57
2018-06-15T04:24:59.717Z,16.77
2018-06-15T04:27:28.113Z,20.00
2018-06-15T04:29:56.429Z,23.12
2018-06-15T04:32:24.788Z,20.08
2018-06-15T04:34:53.120Z,21.30
2018-06-15T04:37:21.438Z,18.60
2018-06-15T04:39:49.766Z,15.80
2018-06-15T04:42:18.079Z,19.10
2018-06-15T04:44:46.392Z,16.02
2018-06-15T04:47:14.710Z,15.93
2018-06-15T04:49:43.037Z,19.92
2018-06-15T04:52:11.074Z,18.25
2018-06-15T04:54:39.408Z,20.23
2018-06-15T04:57:07.733Z,24.45
2018-06-15T04:59:36.063Z,17.15
2018-06-15T05:02:04.398Z,17.42
2018-06-15T05:04:32.749Z,18.02
2018-06-15T05:07:01.065Z,20.02
2018-06-15T05:09:29.394Z,15.18
2018-06-15T05:11:57.717Z,17.15
2018-06-15T05:14:26.088Z,16.52
2018-06-15T05:16:54.433Z,19.40
2018-06-15T05:19:22.827Z,15.20
2018-06-15T05:21:51.166Z,18.98
2018-06-15T05:24:19.532Z,18.62
2018-06-15T05:26:47.892Z,17.85
2018-06-15T05:29:16.235Z,20.32
2018-06-15T05:31:44.556Z,21.80
2018-06-15T05:34:12.901Z,21.23
2018-06-15T05:36:41.243Z,21.93
2018-06-15T05:39:10.440Z,17.17
2018-06-15T05:41:38.990Z,19.45
2018-06-15T05:44:07.584Z,18.60
2018-06-15T05:46:35.912Z,17.50
2018-06-15T05:49:04.557Z,16.50
2018-06-15T05:51:32.897Z,20.75
2018-06-15T05:54:01.231Z,14.87
2018-06-15T05:56:29.288Z,17.80
2018-06-15T05:58:57.612Z,16.60
2018-06-15T06:01:25.957Z,21.65
2018-06-15T06:03:54.345Z,20.97
2018-06-15T06:06:22.902Z,18.57
2018-06-15T06:08:51.253Z,17.45
2018-06-15T06:11:19.581Z,20.60
2018-06-15T06:13:47.933Z,23.80
2018-06-15T06:16:16.266Z,18.00
2018-06-15T06:18:44.576Z,19.32
2018-06-15T06:21:12.909Z,24.02
2018-06-15T06:23:41.221Z,19.90
2018-06-15T06:26:09.937Z,17.65
2018-06-15T06:28:38.248Z,18.12
2018-06-15T06:31:06.580Z,21.85
2018-06-15T06:33:34.904Z,21.12
2018-06-15T06:36:02.952Z,21.70
2018-06-15T06:38:31.364Z,21.82
2018-06-15T06:40:59.745Z,15.98
2018-06-15T06:43:28.076Z,20.20
2018-06-15T06:45:56.420Z,17.40
2018-06-15T06:48:24.753Z,19.87
2018-06-15T06:50:53.084Z,21.57
2018-06-15T06:53:21.438Z,15.35
2018-06-15T06:55:49.493Z,18.77
2018-06-15T06:58:17.552Z,17.42
2018-06-15T07:00:45.888Z,23.05
2018-06-15T07:03:14.221Z,18.95
2018-06-15T07:05:42.557Z,19.45
2018-06-15T07:08:10.908Z,19.85
2018-06-15T07:10:39.277Z,15.40
2018-06-15T07:13:07.671Z,21.05
2018-06-15T07:15:36.025Z,19.15
2018-06-15T07:18:04.377Z,23.25
2018-06-15T07:20:32.760Z,23.20
2018-06-15T07:23:01.244Z,19.30
2018-06-15T07:25:29.569Z,24.32
2018-06-15T07:27:57.917Z,30.15
2018-06-15T07:30:26.244Z,19.92
2018-06-15T07:32:54.585Z,20.92
2018-06-15T07:35:22.931Z,20.85
2018-06-15T07:37:51.273Z,17.70
2018-06-15T07:40:19.605Z,20.27
2018-06-15T07:42:47.965Z,18.75
2018-06-15T07:45:16.301Z,19.57
2018-06-15T07:47:44.645Z,26.45
2018-06-15T07:50:12.965Z,15.00
2018-06-15T07:52:41.312Z,19.60
2018-06-15T07:55:09.359Z,17.55
2018-06-15T07:57:37.723Z,21.90
2018-06-15T08:00:06.339Z,19.60
2018-06-15T08:02:34.694Z,19.15
2018-06-15T08:05:03.016Z,14.93
2018-06-15T08:07:31.388Z,19.23
2018-06-15T08:09:59.741Z,25.80
2018-06-15T08:12:28.110Z,22.35
2018-06-15T08:14:56.466Z,19.07
2018-06-15T08:17:24.808Z,21.48
2018-06-15T08:19:52.845Z,17.85
2018-06-15T08:22:21.274Z,20.92
2018-06-15T08:24:50.480Z,18.07
2018-06-15T08:27:18.870Z,16.75
2018-06-15T08:29:49.881Z,16.48
2018-06-15T08:32:18.388Z,20.70
2018-06-15T08:34:46.727Z,21.05
2018-06-15T08:37:16.092Z,16.77
2018-06-15T08:39:44.453Z,21.65
2018-06-15T08:42:16.578Z,24.10
2018-06-15T08:44:44.978Z,18.00
2018-06-15T08:47:13.348Z,23.90
2018-06-15T08:49:41.684Z,22.15
2018-06-15T08:52:09.998Z,21.35
2018-06-15T08:54:38.390Z,23.50
2018-06-15T08:57:06.782Z,25.20
2018-06-15T08:59:34.924Z,21.95
2018-06-15T09:02:03.265Z,16.70
2018-06-15T09:04:31.598Z,16.17
2018-06-15T09:06:59.910Z,16.25
2018-06-15T09:09:28.236Z,14.15
2018-06-15T09:11:56.560Z,16.30
2018-06-15T09:14:24.920Z,16.30
2018-06-15T09:16:52.987Z,19.77
2018-06-15T09:19:21.468Z,18.50
2018-06-15T09:21:49.822Z,20.23
2018-06-15T09:24:18.168Z,14.80
2018-06-15T09:26:46.501Z,21.27
2018-06-15T09:29:14.571Z,18.98
2018-06-15T09:31:43.469Z,16.80
2018-06-15T09:34:11.804Z,20.77
2018-06-15T09:36:40.141Z,19.85
2018-06-15T09:39:09.961Z,19.73
2018-06-15T09:41:38.294Z,20.23
2018-06-15T09:44:06.716Z,14.00
2018-06-15T09:46:34.817Z,14.93
2018-06-15T09:49:03.112Z,18.40
2018-06-15T09:51:31.452Z,24.30
2018-06-15T09:53:59.545Z,22.00
2018-06-15T09:56:27.567Z,13.60
2018-06-15T09:58:56.868Z,19.42
2018-06-15T10:01:25.225Z,22.52
2018-06-15T10:03:53.571Z,18.65
2018-06-15T10:06:21.900Z,19.17
2018-06-15T10:08:50.269Z,19.37
2018-06-15T10:11:18.597Z,14.90
2018-06-15T10:13:46.997Z,13.18
2018-06-15T10:16:15.337Z,18.92
2018-06-15T10:18:43.375Z,16.95
2018-06-15T10:21:11.753Z,17.65
2018-06-15T10:23:40.068Z,18.85
2018-06-15T10:26:08.397Z,20.68
2018-06-15T10:28:36.729Z,17.42
2018-06-15T10:31:05.072Z,14.43
2018-06-15T10:33:33.394Z,18.07
2018-06-15T10:36:01.441Z,19.40
2018-06-15T10:38:30.830Z,25.02
2018-06-15T10:40:59.174Z,14.95
2018-06-15T10:43:27.505Z,15.55
2018-06-15T10:45:55.838Z,15.78
2018-06-15T10:48:24.148Z,20.43
2018-06-15T10:50:52.472Z,22.50
2018-06-15T10:53:20.813Z,18.35
2018-06-15T10:55:49.143Z,14.73
2018-06-15T10:58:17.462Z,15.45
2018-06-15T11:00:45.852Z,19.45
2018-06-15T11:03:14.182Z,17.98
2018-06-15T11:05:42.525Z,14.20
2018-06-15T11:08:10.569Z,16.85
2018-06-15T11:10:38.900Z,19.82
2018-06-15T11:13:07.250Z,17.20
2018-06-15T11:15:35.659Z,18.73
2018-06-15T11:18:05.221Z,16.07
2018-06-15T11:20:33.615Z,15.70
2018-06-15T11:23:01.980Z,19.37
2018-06-15T11:25:33.665Z,21.27
2018-06-15T11:28:01.736Z,21.10
2018-06-15T11:30:29.808Z,16.12
2018-06-15T11:32:57.859Z,16.55
2018-06-15T11:35:26.197Z,17.25
2018-06-15T11:37:54.521Z,17.15
2018-06-15T11:40:22.863Z,18.17
2018-06-15T11:42:51.216Z,16.25
2018-06-15T11:45:19.557Z,16.52
2018-06-15T11:47:47.910Z,23.10
2018-06-15T11:50:16.241Z,11.48
2018-06-15T11:52:44.293Z,14.50
2018-06-15T11:55:12.622Z,16.60
2018-06-15T11:57:40.961Z,20.40
2018-06-15T12:00:09.304Z,18.87
2018-06-15T12:02:38.749Z,16.95
2018-06-15T12:05:07.090Z,13.43
2018-06-15T12:07:35.437Z,15.10
2018-06-15T12:10:03.817Z,16.02
2018-06-15T12:12:32.172Z,14.75
2018-06-15T12:15:00.232Z,16.15
2018-06-15T12:17:28.581Z,14.33
2018-06-15T12:19:56.924Z,23.15
2018-06-15T12:22:25.301Z,16.15
2018-06-15T12:24:53.645Z,13.10
2018-06-15T12:27:22.020Z,16.15
2018-06-15T12:29:50.374Z,20.37
2018-06-15T12:32:18.749Z,14.18
2018-06-15T12:34:47.159Z,17.10
2018-06-15T12:37:15.660Z,13.32
2018-06-15T12:39:43.744Z,15.80
2018-06-15T12:42:12.121Z,13.68
2018-06-15T12:44:40.459Z,12.40
2018-06-15T12:47:08.844Z,17.27
2018-06-15T12:49:37.194Z,13.18
2018-06-15T12:52:05.626Z,11.48
2018-06-15T12:54:33.680Z,13.03
2018-06-15T12:57:02.051Z,12.20
2018-06-15T12:59:30.505Z,10.90
2018-06-15T13:01:58.864Z,13.28
2018-06-15T13:04:27.209Z,11.77
2018-06-15T13:06:55.621Z,15.53
2018-06-15T13:09:23.951Z,13.58
2018-06-15T13:11:52.580Z,15.97
2018-06-15T13:14:20.950Z,15.53
2018-06-15T13:16:49.381Z,17.93
2018-06-15T13:19:17.789Z,11.83
2018-06-15T13:21:46.224Z,15.00
2018-06-15T13:24:14.596Z,17.10
2018-06-15T13:26:42.927Z,15.20
2018-06-15T13:29:11.276Z,17.73
2018-06-15T13:31:39.620Z,11.00
2018-06-15T13:34:07.949Z,11.17
2018-06-15T13:36:36.280Z,14.07
2018-06-15T13:39:08.921Z,14.15
2018-06-15T13:41:37.240Z,14.50
2018-06-15T13:44:05.698Z,12.65
2018-06-15T13:46:33.760Z,13.95
2018-06-15T13:49:02.117Z,14.18
2018-06-15T13:51:30.453Z,12.25
2018-06-15T13:53:58.821Z,12.87
2018-06-15T13:56:27.168Z,14.03
2018-06-15T13:58:55.521Z,12.90
2018-06-15T14:01:24.025Z,14.77
2018-06-15T14:03:52.369Z,9.30
2018-06-15T14:06:20.693Z,15.30
2018-06-15T14:08:49.042Z,13.67
2018-06-15T14:11:17.384Z,12.15
2018-06-15T14:13:45.773Z,12.70
2018-06-15T14:16:14.109Z,13.18
2018-06-15T14:18:42.448Z,12.07
2018-06-15T14:21:10.773Z,11.68
2018-06-15T14:23:39.109Z,13.50
2018-06-15T14:26:07.429Z,14.45
2018-06-15T14:28:35.768Z,11.83
2018-06-15T14:31:04.082Z,12.80
2018-06-15T14:33:32.444Z,10.20
2018-06-15T14:36:00.764Z,10.65
2018-06-15T14:38:28.887Z,11.63
2018-06-15T14:40:57.217Z,10.23
2018-06-15T14:43:25.260Z,12.13
2018-06-15T14:45:53.654Z,15.97
2018-06-15T14:48:21.969Z,11.37
2018-06-15T14:50:50.371Z,10.97
2018-06-15T14:53:18.784Z,10.40
2018-06-15T14:55:47.149Z,11.93
2018-06-15T14:58:15.480Z,12.45
2018-06-15T15:00:43.818Z,11.08
2018-06-15T15:03:12.157Z,12.73
2018-06-15T15:05:40.489Z,12.30
2018-06-15T15:08:08.815Z,15.43
2018-06-15T15:10:37.160Z,12.03
2018-06-15T15:13:05.481Z,10.82
2018-06-15T15:15:33.855Z,15.13
2018-06-15T15:18:02.665Z,10.23
2018-06-15T15:20:31.026Z,13.15
2018-06-15T15:22:59.368Z,16.87
2018-06-15T15:25:27.432Z,10.45
2018-06-15T15:27:55.484Z,12.63
2018-06-15T15:30:23.833Z,10.00
2018-06-15T15:32:52.173Z,10.48
2018-06-15T15:35:20.533Z,14.13
2018-06-15T15:37:48.857Z,19.12
2018-06-15T15:40:17.206Z,8.95
2018-06-15T15:42:45.529Z,12.88
2018-06-15T15:45:13.890Z,13.40
2018-06-15T15:47:42.225Z,11.55
2018-06-15T15:50:10.568Z,10.25
2018-06-15T15:52:39.073Z,10.25
2018-06-15T15:55:07.437Z,23.55
2018-06-15T15:57:35.815Z,15.93
2018-06-15T16:00:04.506Z,13.83
2018-06-15T16:02:32.856Z,14.83
2018-06-15T16:05:01.245Z,8.80
2018-06-15T16:07:29.574Z,9.40
2018-06-15T16:09:57.910Z,14.20
2018-06-15T16:12:26.257Z,12.10
2018-06-15T16:14:54.574Z,11.70
2018-06-15T16:17:22.916Z,14.00
2018-06-15T16:19:51.218Z,13.03
2018-06-15T16:22:19.551Z,13.20
2018-06-15T16:24:47.860Z,10.73
2018-06-15T16:27:16.423Z,9.53
2018-06-15T16:29:44.859Z,9.93
2018-06-15T16:32:13.190Z,14.50
2018-06-15T16:34:41.857Z,11.07
2018-06-15T16:37:10.201Z,10.28
2018-06-15T16:39:38.557Z,10.77
2018-06-15T16:42:06.909Z,13.33
2018-06-15T16:44:35.258Z,13.40
2018-06-15T16:47:03.648Z,12.87
2018-06-15T16:49:31.972Z,13.93
2018-06-15T16:52:00.317Z,11.23
2018-06-15T16:54:28.647Z,10.27
2018-06-15T16:56:56.985Z,11.53
2018-06-15T16:59:25.336Z,18.93
2018-06-15T17:01:53.743Z,9.13
2018-06-15T17:04:22.054Z,11.60
2018-06-15T17:06:50.476Z,12.20
2018-06-15T17:09:18.789Z,11.85
2018-06-15T17:11:46.860Z,9.93
2018-06-15T17:14:15.204Z,9.93
2018-06-15T17:16:43.571Z,16.77
2018-06-15T17:19:11.908Z,13.60
2018-06-15T17:21:40.232Z,15.00
2018-06-15T17:24:08.549Z,14.80
2018-06-15T17:26:36.896Z,13.03
2018-06-15T17:29:05.496Z,12.37
2018-06-15T17:31:33.865Z,11.77
2018-06-15T17:34:02.200Z,9.93
2018-06-15T17:36:30.549Z,10.70
2018-06-15T17:38:58.939Z,10.73
2018-06-15T17:41:27.000Z,15.40
2018-06-15T17:43:55.373Z,11.90
2018-06-15T17:46:23.698Z,14.57
2018-06-15T17:48:52.066Z,16.37
2018-06-15T17:51:20.393Z,13.87
2018-06-15T17:53:48.729Z,16.53
2018-06-15T17:56:17.489Z,16.70
2018-06-15T17:58:45.833Z,23.00
2018-06-15T18:01:14.173Z,18.63
2018-06-15T18:03:42.508Z,16.77
2018-06-15T18:06:10.825Z,15.20
2018-06-15T18:08:39.198Z,18.53
2018-06-15T18:11:07.546Z,15.07
2018-06-15T18:13:35.881Z,13.57
2018-06-15T18:16:04.269Z,13.10
2018-06-15T18:18:32.637Z,12.13
2018-06-15T18:21:00.986Z,22.00
2018-06-15T18:23:29.347Z,17.10
2018-06-15T18:25:57.682Z,12.00
2018-06-15T18:28:26.045Z,16.37
2018-06-15T18:30:54.393Z,14.23
2018-06-15T18:33:22.789Z,11.07
2018-06-15T18:35:51.137Z,13.40
2018-06-15T18:38:19.492Z,12.93
2018-06-15T18:40:47.844Z,14.33
2018-06-15T18:43:16.227Z,10.37
2018-06-15T18:45:44.593Z,11.17
2018-06-15T18:48:12.948Z,13.03
2018-06-15T18:50:41.284Z,8.57
2018-06-15T18:53:09.645Z,12.13
2018-06-15T18:55:37.995Z,11.53
2018-06-15T18:58:06.346Z,14.75
2018-06-15T19:00:34.752Z,14.70
2018-06-15T19:03:03.089Z,18.17
2018-06-15T19:05:31.444Z,15.60
2018-06-15T19:07:59.781Z,13.53
2018-06-15T19:10:28.132Z,11.20
2018-06-15T19:12:56.473Z,11.12
2018-06-15T19:15:24.846Z,15.40
2018-06-15T19:17:53.164Z,11.55
2018-06-15T19:20:21.534Z,13.03
2018-06-15T19:22:49.923Z,11.33
2018-06-15T19:25:18.259Z,12.53
2018-06-15T19:27:46.608Z,17.15
2018-06-15T19:30:14.965Z,12.33
2018-06-15T19:32:43.296Z,12.35
2018-06-15T19:35:11.356Z,17.65
2018-06-15T19:37:39.420Z,14.58
2018-06-15T19:40:07.890Z,12.80
2018-06-15T19:42:36.292Z,12.78
2018-06-15T19:45:04.706Z,10.78
2018-06-15T19:47:33.052Z,14.63
2018-06-15T19:50:01.423Z,12.82
2018-06-15T19:52:29.808Z,15.80
2018-06-15T19:54:58.200Z,15.40
2018-06-15T19:57:26.553Z,16.52
2018-06-15T19:59:54.969Z,18.07
2018-06-15T20:02:23.350Z,16.50
2018-06-15T20:04:51.691Z,15.55
2018-06-15T20:07:20.053Z,15.05
2018-06-15T20:09:48.375Z,14.65
2018-06-15T20:12:16.435Z,17.10
2018-06-15T20:14:44.773Z,15.30
2018-06-15T20:17:13.113Z,18.90
2018-06-15T20:19:41.425Z,19.35
2018-06-15T20:22:09.792Z,19.80
2018-06-15T20:24:38.133Z,19.30
2018-06-15T20:27:06.495Z,17.10
2018-06-15T20:29:34.812Z,25.02
2018-06-15T20:32:03.170Z,25.37
2018-06-15T20:34:31.217Z,18.80
2018-06-15T20:36:59.567Z,22.20
2018-06-15T20:39:27.877Z,17.82
2018-06-15T20:41:56.205Z,20.90
2018-06-15T20:44:24.528Z,20.72
2018-06-15T20:46:52.860Z,19.02
2018-06-15T20:49:21.194Z,18.57
2018-06-15T20:51:49.528Z,21.15
2018-06-15T20:54:17.853Z,19.62
2018-06-15T20:56:46.204Z,21.00
2018-06-15T20:59:14.529Z,22.77
2018-06-15T21:01:42.840Z,21.95
2018-06-15T21:04:11.174Z,21.12
2018-06-15T21:06:39.486Z,19.60
2018-06-15T21:09:08.905Z,18.67
2018-06-15T21:11:37.222Z,21.20
2018-06-15T21:14:05.641Z,21.45
2018-06-15T21:16:33.680Z,23.18
2018-06-15T21:19:02.024Z,20.70
2018-06-15T21:21:30.357Z,21.93
2018-06-15T21:23:58.688Z,26.57
2018-06-15T21:26:26.999Z,21.90
2018-06-15T21:28:55.331Z,21.70
2018-06-15T21:31:23.653Z,20.77
2018-06-15T21:33:52.090Z,21.02
2018-06-15T21:36:20.416Z,22.95
2018-06-15T21:38:48.750Z,19.87
2018-06-15T21:41:17.068Z,22.73
2018-06-15T21:43:45.397Z,23.92
2018-06-15T21:46:13.725Z,28.15
2018-06-15T21:48:42.057Z,21.70
2018-06-15T21:51:10.381Z,22.25
2018-06-15T21:53:38.716Z,24.77
2018-06-15T21:56:07.036Z,20.25
2018-06-15T21:58:35.369Z,21.57
2018-06-15T22:01:03.732Z,23.70
2018-06-15T22:03:32.073Z,21.90
2018-06-15T22:06:00.412Z,23.32
2018-06-15T22:08:28.769Z,19.23
2018-06-15T22:10:57.086Z,21.30
2018-06-15T22:13:25.414Z,21.27
2018-06-15T22:15:53.761Z,24.55
2018-06-15T22:18:22.089Z,21.52
2018-06-15T22:20:50.405Z,23.98
2018-06-15T22:23:18.736Z,22.40
2018-06-15T22:25:46.820Z,20.50
2018-06-15T22:28:14.872Z,28.85
2018-06-15T22:30:43.205Z,28.83
2018-06-15T22:33:11.514Z,22.00
2018-06-15T22:35:39.839Z,21.90
2018-06-15T22:38:07.872Z,21.30
2018-06-15T22:40:36.205Z,28.85
2018-06-15T22:43:04.560Z,24.67
2018-06-15T22:45:32.605Z,18.77
2018-06-15T22:48:00.913Z,25.30
2018-06-15T22:50:29.251Z,21.95
2018-06-15T22:52:57.600Z,21.42
2018-06-15T22:55:25.930Z,21.97
2018-06-15T22:57:54.236Z,18.15
2018-06-15T23:00:24.518Z,21.93
2018-06-15T23:02:52.830Z,25.80
2018-06-15T23:05:20.872Z,20.75
2018-06-15T23:07:49.186Z,23.32
2018-06-15T23:10:17.537Z,18.60
2018-06-15T23:12:45.852Z,22.80
2018-06-15T23:15:14.196Z,21.05
2018-06-15T23:17:42.518Z,21.70
2018-06-15T23:20:10.853Z,21.48
2018-06-15T23:22:39.174Z,32.17
2018-06-15T23:25:07.633Z,23.12
2018-06-15T23:27:35.720Z,27.22
2018-06-15T23:30:04.493Z,24.67
2018-06-15T23:32:32.797Z,24.12
2018-06-15T23:35:01.140Z,22.62
2018-06-15T23:37:29.185Z,23.77
2018-06-15T23:39:57.505Z,26.85
2018-06-15T23:42:25.844Z,23.62
2018-06-15T23:44:54.184Z,22.37
2018-06-15T23:47:22.513Z,21.37
2018-06-15T23:49:50.829Z,20.50
2018-06-15T23:52:19.156Z,21.57
2018-06-15T23:54:47.479Z,25.85
2018-06-15T23:57:15.808Z,29.72
2018-06-15T23:59:44.116Z,22.07
